Terminal Aerodrome Forecast
Issued by NWS Atlanta, GA

Home | Current Version | Previous Version | Text Only | Print | Product List | Glossary On
Versions: 1 2 3 4 5 6 7 8 9 10 11 12 13 14 15 16 17 18 19
000
FTUS42 KFFC 251733
TAFCSG
TAF
KCSG 251733Z 2518/2618 17009KT P6SM BKN040
     FM260100 21005KT P6SM BKN040
     FM260300 VRB03KT P6SM VCSH BKN040 PROB30 2603/2608 5SM TSRA
      BKN025CB
     FM260800 12007KT P6SM OVC040
     FM261300 16008KT P6SM OVC040
     FM261700 19011KT P6SM BKN050=

USA.gov is the U.S. government's official web portal to all federal, state and local government web resources and services.